CMA CGM La Boussole — A8FZ6 — position and weather

sailwx.info

Track history (hours):
 
Tides and Currents Weather Stations Pressure Air Temp Water Temp Dewpoint Dewpoint Depression Visibility Wind Speed Wind Dir Waves Ship Positions

CMA CGM La Boussole

Last reported at 2017-Sep-20 17:45 UTC. Time now 2017-Sep-23 23:50 UTC.
Position N 34°53' W 013°59'.

Length 210.1 m; beam 30.2 m; draft 11.5 m.

Type: Ship (hazmat cat A). MMSI: 636017045.

Date/timePositionNaut miles runAvg speedWind from/ knotsBaromVisibWave heightAir tempDewpointWater temp
2017-Sep-20 17:45N 34°53' W 013°59'417.1
2017-Sep-20 17:30N 34°54' W 013°53'917.1
2017-Sep-20 17:00N 34°56' W 013°43'817.0
2017-Sep-20 16:30N 34°58' W 013°33'1017.4
2017-Sep-20 15:55N 34°60' W 013°21'917.3
2017-Sep-20 15:24N 35°01' W 013°10'917.1
2017-Sep-20 14:54N 35°03' W 012°60'1617.3
2017-Sep-20 13:57N 35°06' W 012°40'817.0
2017-Sep-20 13:30N 35°08' W 012°31'1017.8
2017-Sep-20 12:55N 35°10' W 012°19'11817.8
2017-Sep-20 06:18N 35°30' W 009°57'717.4
2017-Sep-20 05:56N 35°31' W 009°48'717.5
2017-Sep-20 05:31N 35°32' W 009°40'917.5
2017-Sep-20 05:01N 35°33' W 009°29'917.4
2017-Sep-20 04:30N 35°34' W 009°18'1217.4
2017-Sep-20 03:49N 35°36' W 009°04'617.5
2017-Sep-20 03:30N 35°37' W 008°57'917.3
2017-Sep-20 03:01N 35°39' W 008°47'917.1
2017-Sep-20 02:30N 35°40' W 008°36'1217.3
2017-Sep-20 01:49N 35°42' W 008°22'617.7
2017-Sep-20 01:29N 35°43' W 008°15'1117.6
2017-Sep-20 00:50N 35°45' W 008°01'617.6
2017-Sep-20 00:31N 35°45' W 007°54'917.4
2017-Sep-20 00:01N 35°47' W 007°43'1017.4
2017-Sep-19 23:27N 35°48' W 007°31'817.6
2017-Sep-19 23:00N 35°50' W 007°22'917.5
2017-Sep-19 22:30N 35°51' W 007°11'917.8
2017-Sep-19 22:00N 35°52' W 007°00'2317.5
2017-Sep-19 20:41N 35°55' W 006°32'317.4
2017-Sep-19 20:30N 35°55' W 006°28'917.4
2017-Sep-19 20:00N 35°56' W 006°17'3615.5
2017-Sep-19 17:42N 35°58' W 005°33'513.2
2017-Sep-19 17:18N 35°59' W 005°27'413.4
2017-Sep-19 17:00N 36°01' W 005°22'714.3
2017-Sep-19 16:30N 36°03' W 005°14'21215.9
2017-Sep-19 03:09N 37°12' W 001°04'317.4
2017-Sep-19 02:58N 37°15' W 001°01'817.6
2017-Sep-19 02:30N 37°20' W 000°54'917.5
2017-Sep-19 02:01N 37°26' W 000°46'917.1
2017-Sep-19 01:30N 37°32' W 000°37'917.3
2017-Sep-19 01:00N 37°38' W 000°29'917.5
2017-Sep-19 00:30N 37°45' W 000°23'917.4
2017-Sep-19 00:00N 37°53' W 000°18'917.3
2017-Sep-18 23:27N 38°01' W 000°13'1117.6
2017-Sep-18 22:51N 38°10' W 000°05'148 3.8
2017-Sep-17 08:13N 40°25' E 001°13'313.1
2017-Sep-17 08:00N 40°27' E 001°16'713.0
2017-Sep-17 07:30N 40°32' E 001°21'612.9
2017-Sep-17 07:00N 40°36' E 001°27'713.0
2017-Sep-17 06:29N 40°42' E 001°32'813.2
2017-Sep-17 05:54N 40°48' E 001°38'513.3
2017-Sep-17 05:30N 40°52' E 001°43'713.3
2017-Sep-17 05:00N 40°57' E 001°48'713.3
2017-Sep-17 04:30N 41°02' E 001°54'713.2
2017-Sep-17 04:00N 41°07' E 001°60'713.2
2017-Sep-17 03:30N 41°12' E 002°06'712.2
2017-Sep-17 02:57N 41°18' E 002°10'1 0.0
2017-Sep-16 11:14N 41°18' E 002°11'12511.8
2017-Sep-16 00:40N 42°36' E 004°21'412.6
2017-Sep-16 00:22N 42°39' E 004°25'412.3
2017-Sep-16 00:01N 42°42' E 004°29'612.5
2017-Sep-15 23:30N 42°47' E 004°34'612.4
2017-Sep-15 23:01N 42°52' E 004°39'612.0
2017-Sep-15 22:30N 42°56' E 004°46'612.2
2017-Sep-15 22:00N 42°60' E 004°52'612.2
2017-Sep-15 21:30N 43°04' E 004°59'713.0
2017-Sep-15 21:00N 43°08' E 005°05'612.0
2017-Sep-15 20:30N 43°14' E 005°09'711.7
2017-Sep-15 19:55N 43°19' E 005°14'5 0.1
2017-Sep-14 12:19N 43°21' E 005°20'1 3.4
2017-Sep-14 11:59N 43°21' E 005°19'3 7.1
2017-Sep-14 11:30N 43°19' E 005°15'3 6.9
2017-Sep-14 11:00N 43°17' E 005°11'612.5
2017-Sep-14 10:31N 43°11' E 005°10'713.9
2017-Sep-14 10:00N 43°06' E 005°17'1019.2
2017-Sep-14 09:30N 43°01' E 005°29'1019.1
2017-Sep-14 08:58N 42°57' E 005°42'1019.4
2017-Sep-14 08:26N 42°53' E 005°54'1918.9
2017-Sep-14 07:25N 42°52' E 006°20'3118.6
2017-Sep-14 05:45N 43°07' E 006°58'519.2
2017-Sep-14 05:30N 43°10' E 007°03'1019.0
2017-Sep-14 04:59N 43°15' E 007°14'919.0
2017-Sep-14 04:30N 43°21' E 007°24'1018.8
2017-Sep-14 03:59N 43°27' E 007°35'3820.0
2017-Sep-14 02:04N 43°50' E 008°17'320.0
2017-Sep-14 01:55N 43°52' E 008°20'819.9
2017-Sep-14 01:30N 43°58' E 008°29'1019.8
2017-Sep-14 01:00N 44°05' E 008°39'1019.6
2017-Sep-14 00:30N 44°12' E 008°47'918.9
2017-Sep-14 00:00N 44°19' E 008°56'5 9.5
2017-Sep-13 23:30N 44°24' E 008°55'1 2.4
2017-Sep-13 22:59N 44°24' E 008°54'0 0.0
2017-Sep-13 22:29N 44°24' E 008°54'0 0.0
2017-Sep-13 21:59N 44°24' E 008°54'0 0.0
2017-Sep-13 21:29N 44°24' E 008°54'0 0.0
2017-Sep-13 20:59N 44°24' E 008°54'0 0.0
2017-Sep-13 20:26N 44°24' E 008°54'0 0.0
2017-Sep-13 19:59N 44°24' E 008°54'0 0.0
2017-Sep-13 19:26N 44°24' E 008°54'0 0.0
2017-Sep-13 18:53N 44°24' E 008°54'0 0.0
2017-Sep-13 18:29N 44°24' E 008°54'0 0.0
2017-Sep-13 17:59N 44°24' E 008°54'0 0.0
2017-Sep-13 17:29N 44°24' E 008°54'0 0.0
2017-Sep-13 16:59N 44°24' E 008°54'0 0.0
2017-Sep-13 16:29N 44°24' E 008°54'0 0.0
2017-Sep-13 15:56N 44°24' E 008°54'0 0.0
2017-Sep-13 15:29N 44°24' E 008°54'0 0.0
2017-Sep-13 14:59N 44°24' E 008°54'0 0.0
2017-Sep-13 14:26N 44°24' E 008°54'0 0.0
2017-Sep-13 13:59N 44°24' E 008°54'0 0.0
2017-Sep-13 13:29N 44°24' E 008°54'0 0.0
2017-Sep-13 12:59N 44°24' E 008°54'0 0.0
2017-Sep-13 12:29N 44°24' E 008°54'0 0.0
2017-Sep-13 11:59N 44°24' E 008°54'0 0.0
2017-Sep-13 11:29N 44°24' E 008°54'0 0.0
2017-Sep-13 11:00N 44°24' E 008°54'1 1.8
2017-Sep-13 10:30N 44°24' E 008°55'3 5.9
2017-Sep-13 10:00N 44°22' E 008°58'511.0
2017-Sep-13 09:30N 44°17' E 009°02'1019.2
2017-Sep-13 09:00N 44°10' E 009°10'1019.9
2017-Sep-13 08:30N 44°02' E 009°19'1019.7
2017-Sep-13 08:00N 43°54' E 009°28'1019.4
2017-Sep-13 07:30N 43°47' E 009°36'1019.3
2017-Sep-13 07:00N 43°39' E 009°44'1019.2
2017-Sep-13 06:30N 43°32' E 009°52'918.5
2017-Sep-13 06:00N 43°30' E 010°05'714.0
2017-Sep-13 05:30N 43°32' E 010°14'3 6.8
2017-Sep-13 05:00N 43°34' E 010°18'1 1.1
2017-Sep-13 04:27N 43°35' E 010°18'0 0.0
2017-Sep-13 04:00N 43°35' E 010°18'0 0.0
2017-Sep-13 03:30N 43°35' E 010°18'0 0.0
2017-Sep-13 02:57N 43°35' E 010°18'0 0.0
2017-Sep-13 02:30N 43°35' E 010°18'0 0.0
2017-Sep-13 02:00N 43°35' E 010°18'0 0.0
2017-Sep-13 01:24N 43°35' E 010°18'0 0.0
2017-Sep-13 01:00N 43°35' E 010°18'0 0.0
2017-Sep-13 00:30N 43°35' E 010°18'0 0.0
2017-Sep-13 00:00N 43°35' E 010°18'0 0.0
2017-Sep-12 23:30N 43°35' E 010°18'0 0.0
2017-Sep-12 23:00N 43°35' E 010°18'0 0.0
2017-Sep-12 22:30N 43°35' E 010°18'0 0.0
2017-Sep-12 22:00N 43°35' E 010°18'0 0.0
2017-Sep-12 21:30N 43°35' E 010°18'0 0.0
2017-Sep-12 20:57N 43°35' E 010°18'0 0.0
2017-Sep-12 20:30N 43°35' E 010°18'0 0.0
2017-Sep-12 20:00N 43°35' E 010°18'0 0.0
2017-Sep-12 19:30N 43°35' E 010°18'0 0.0
2017-Sep-12 19:00N 43°35' E 010°18'0 0.0
2017-Sep-12 18:28N 43°35' E 010°18'0 0.0
2017-Sep-12 17:58N 43°35' E 010°18'0 0.0
2017-Sep-12 17:28N 43°35' E 010°18'0 0.0
2017-Sep-12 16:58N 43°35' E 010°18'0 0.0
2017-Sep-12 16:28N 43°35' E 010°18'0 0.0
2017-Sep-12 15:58N 43°35' E 010°18'0 0.0
2017-Sep-12 15:28N 43°35' E 010°18'0 0.0
2017-Sep-12 14:58N 43°35' E 010°18'0 0.0
2017-Sep-12 14:28N 43°35' E 010°18'0 0.0
2017-Sep-12 13:55N 43°35' E 010°18'0 0.0
2017-Sep-12 13:28N 43°35' E 010°18'0 0.0
2017-Sep-12 12:58N 43°35' E 010°18'0 0.0
2017-Sep-12 12:28N 43°35' E 010°18'0 0.0
2017-Sep-12 11:58N 43°35' E 010°18'0 0.0
2017-Sep-12 11:28N 43°35' E 010°18'0 0.0
2017-Sep-12 10:58N 43°35' E 010°18'0 0.0
2017-Sep-12 10:28N 43°35' E 010°18'0 0.0
2017-Sep-12 09:58N 43°35' E 010°18'0 0.0
2017-Sep-12 09:28N 43°35' E 010°18'0 0.0
2017-Sep-12 08:58N 43°35' E 010°18'0 0.0
2017-Sep-12 08:28N 43°35' E 010°18'0 0.0
2017-Sep-12 07:58N 43°35' E 010°18'0 0.0
2017-Sep-12 07:28N 43°35' E 010°18'0 0.0
2017-Sep-12 06:58N 43°35' E 010°18'0 0.0
2017-Sep-12 06:28N 43°35' E 010°18'0 0.0
2017-Sep-12 05:58N 43°35' E 010°18'0 0.0
2017-Sep-12 05:25N 43°35' E 010°18'0 0.0
2017-Sep-12 04:55N 43°35' E 010°18'0 0.0
2017-Sep-12 04:28N 43°35' E 010°18'0 0.0
2017-Sep-12 03:58N 43°35' E 010°18'0 0.0
2017-Sep-12 03:28N 43°35' E 010°18'0 0.0
2017-Sep-12 02:58N 43°35' E 010°18'0 0.0
2017-Sep-12 02:28N 43°35' E 010°18'0 0.0
2017-Sep-12 01:58N 43°35' E 010°18'0 0.0
2017-Sep-12 01:28N 43°35' E 010°18'0 0.0
2017-Sep-12 00:58N 43°35' E 010°18'0 0.0
2017-Sep-12 00:28N 43°35' E 010°18'0 0.0
2017-Sep-11 23:58N 43°35' E 010°18'0 0.0
2017-Sep-11 23:22N 43°35' E 010°18'0 0.0
2017-Sep-11 22:58N 43°35' E 010°18'0 0.0
2017-Sep-11 22:22N 43°35' E 010°18'0 0.0
2017-Sep-11 21:55N 43°35' E 010°18'0 0.0
2017-Sep-11 21:28N 43°35' E 010°18'0 0.0
2017-Sep-11 20:58N 43°35' E 010°18'0 0.0
2017-Sep-11 20:28N 43°35' E 010°18'0 0.0
2017-Sep-11 19:58N 43°35' E 010°18'0 0.0
2017-Sep-11 19:28N 43°35' E 010°18'0 0.0
2017-Sep-11 18:58N 43°35' E 010°18'0 0.0
2017-Sep-11 18:28N 43°35' E 010°18'0 0.0
2017-Sep-11 17:58N 43°35' E 010°18'0 0.0
2017-Sep-11 17:28N 43°35' E 010°18'0 0.0
2017-Sep-11 16:55N 43°35' E 010°18'0 0.0
2017-Sep-11 16:28N 43°35' E 010°18'0 0.0
2017-Sep-11 15:58N 43°35' E 010°18'0 0.0
2017-Sep-11 15:28N 43°35' E 010°18'0 0.0
2017-Sep-11 14:58N 43°35' E 010°18'0 0.0
2017-Sep-11 14:28N 43°35' E 010°18'0 0.0
2017-Sep-11 13:58N 43°35' E 010°18'0 0.0
2017-Sep-11 13:25N 43°35' E 010°18'0 0.0
2017-Sep-11 12:55N 43°35' E 010°18'0 0.0
2017-Sep-11 12:31N 43°35' E 010°18'1 1.2
2017-Sep-11 12:01N 43°34' E 010°18'1 2.1
2017-Sep-11 11:31N 43°33' E 010°17'1 2.7
2017-Sep-11 11:01N 43°32' E 010°16'2 4.6
2017-Sep-11 10:31N 43°30' E 010°14'510.7
2017-Sep-11 10:00N 43°26' E 010°10'0 0.4
2017-Sep-11 09:30N 43°26' E 010°10'0 0.5
2017-Sep-11 09:00N 43°26' E 010°10'1 1.0
2017-Sep-11 08:30N 43°25' E 010°09'1 1.2
2017-Sep-11 08:00N 43°25' E 010°09'4 7.2
2017-Sep-11 07:30N 43°22' E 010°05'611.2
2017-Sep-11 07:00N 43°19' E 009°59'713.5
2017-Sep-11 06:31N 43°17' E 009°50'917.5
2017-Sep-11 06:01N 43°14' E 009°39'1019.6
2017-Sep-11 05:31N 43°12' E 009°25'1019.8
2017-Sep-11 05:01N 43°09' E 009°12'  
Track history (hours):
 
Tides and Currents Weather Stations Pressure Air Temp Water Temp Dewpoint Dewpoint Depression Visibility Wind Speed Wind Dir Waves Ship Positions

CMA CGM La Boussole

Last reported at 2017-Sep-20 17:45 UTC. Time now 2017-Sep-23 23:50 UTC.
Position N 34°53' W 013°59'.

Length 210.1 m; beam 30.2 m; draft 11.5 m.

Type: Ship (hazmat cat A). MMSI: 636017045.

Date/timePositionNaut miles runAvg speedWind from/ knotsBaromVisibWave heightAir tempDewpointWater temp
2017-Sep-20 17:45N 34°53' W 013°59'417.1
2017-Sep-20 17:30N 34°54' W 013°53'917.1
2017-Sep-20 17:00N 34°56' W 013°43'817.0
2017-Sep-20 16:30N 34°58' W 013°33'1017.4
2017-Sep-20 15:55N 34°60' W 013°21'917.3
2017-Sep-20 15:24N 35°01' W 013°10'917.1
2017-Sep-20 14:54N 35°03' W 012°60'1617.3
2017-Sep-20 13:57N 35°06' W 012°40'817.0
2017-Sep-20 13:30N 35°08' W 012°31'1017.8
2017-Sep-20 12:55N 35°10' W 012°19'11817.8
2017-Sep-20 06:18N 35°30' W 009°57'717.4
2017-Sep-20 05:56N 35°31' W 009°48'717.5
2017-Sep-20 05:31N 35°32' W 009°40'917.5
2017-Sep-20 05:01N 35°33' W 009°29'917.4
2017-Sep-20 04:30N 35°34' W 009°18'1217.4
2017-Sep-20 03:49N 35°36' W 009°04'617.5
2017-Sep-20 03:30N 35°37' W 008°57'917.3
2017-Sep-20 03:01N 35°39' W 008°47'917.1
2017-Sep-20 02:30N 35°40' W 008°36'1217.3
2017-Sep-20 01:49N 35°42' W 008°22'617.7
2017-Sep-20 01:29N 35°43' W 008°15'1117.6
2017-Sep-20 00:50N 35°45' W 008°01'617.6
2017-Sep-20 00:31N 35°45' W 007°54'917.4
2017-Sep-20 00:01N 35°47' W 007°43'1017.4
2017-Sep-19 23:27N 35°48' W 007°31'817.6
2017-Sep-19 23:00N 35°50' W 007°22'917.5
2017-Sep-19 22:30N 35°51' W 007°11'917.8
2017-Sep-19 22:00N 35°52' W 007°00'2317.5
2017-Sep-19 20:41N 35°55' W 006°32'317.4
2017-Sep-19 20:30N 35°55' W 006°28'917.4
2017-Sep-19 20:00N 35°56' W 006°17'3615.5
2017-Sep-19 17:42N 35°58' W 005°33'513.2
2017-Sep-19 17:18N 35°59' W 005°27'413.4
2017-Sep-19 17:00N 36°01' W 005°22'714.3
2017-Sep-19 16:30N 36°03' W 005°14'21215.9
2017-Sep-19 03:09N 37°12' W 001°04'317.4
2017-Sep-19 02:58N 37°15' W 001°01'817.6
2017-Sep-19 02:30N 37°20' W 000°54'917.5
2017-Sep-19 02:01N 37°26' W 000°46'917.1
2017-Sep-19 01:30N 37°32' W 000°37'917.3
2017-Sep-19 01:00N 37°38' W 000°29'917.5
2017-Sep-19 00:30N 37°45' W 000°23'917.4
2017-Sep-19 00:00N 37°53' W 000°18'917.3
2017-Sep-18 23:27N 38°01' W 000°13'1117.6
2017-Sep-18 22:51N 38°10' W 000°05'148 3.8
2017-Sep-17 08:13N 40°25' E 001°13'313.1
2017-Sep-17 08:00N 40°27' E 001°16'713.0
2017-Sep-17 07:30N 40°32' E 001°21'612.9
2017-Sep-17 07:00N 40°36' E 001°27'713.0
2017-Sep-17 06:29N 40°42' E 001°32'813.2
2017-Sep-17 05:54N 40°48' E 001°38'513.3
2017-Sep-17 05:30N 40°52' E 001°43'713.3
2017-Sep-17 05:00N 40°57' E 001°48'713.3
2017-Sep-17 04:30N 41°02' E 001°54'713.2
2017-Sep-17 04:00N 41°07' E 001°60'713.2
2017-Sep-17 03:30N 41°12' E 002°06'712.2
2017-Sep-17 02:57N 41°18' E 002°10'1 0.0
2017-Sep-16 11:14N 41°18' E 002°11'12511.8
2017-Sep-16 00:40N 42°36' E 004°21'412.6
2017-Sep-16 00:22N 42°39' E 004°25'412.3
2017-Sep-16 00:01N 42°42' E 004°29'612.5
2017-Sep-15 23:30N 42°47' E 004°34'612.4
2017-Sep-15 23:01N 42°52' E 004°39'612.0
2017-Sep-15 22:30N 42°56' E 004°46'612.2
2017-Sep-15 22:00N 42°60' E 004°52'612.2
2017-Sep-15 21:30N 43°04' E 004°59'713.0
2017-Sep-15 21:00N 43°08' E 005°05'612.0
2017-Sep-15 20:30N 43°14' E 005°09'711.7
2017-Sep-15 19:55N 43°19' E 005°14'5 0.1
2017-Sep-14 12:19N 43°21' E 005°20'1 3.4
2017-Sep-14 11:59N 43°21' E 005°19'3 7.1
2017-Sep-14 11:30N 43°19' E 005°15'3 6.9
2017-Sep-14 11:00N 43°17' E 005°11'612.5
2017-Sep-14 10:31N 43°11' E 005°10'713.9
2017-Sep-14 10:00N 43°06' E 005°17'1019.2
2017-Sep-14 09:30N 43°01' E 005°29'1019.1
2017-Sep-14 08:58N 42°57' E 005°42'1019.4
2017-Sep-14 08:26N 42°53' E 005°54'1918.9
2017-Sep-14 07:25N 42°52' E 006°20'3118.6
2017-Sep-14 05:45N 43°07' E 006°58'519.2
2017-Sep-14 05:30N 43°10' E 007°03'1019.0
2017-Sep-14 04:59N 43°15' E 007°14'919.0
2017-Sep-14 04:30N 43°21' E 007°24'1018.8
2017-Sep-14 03:59N 43°27' E 007°35'3820.0
2017-Sep-14 02:04N 43°50' E 008°17'320.0
2017-Sep-14 01:55N 43°52' E 008°20'819.9
2017-Sep-14 01:30N 43°58' E 008°29'1019.8
2017-Sep-14 01:00N 44°05' E 008°39'1019.6
2017-Sep-14 00:30N 44°12' E 008°47'918.9
2017-Sep-14 00:00N 44°19' E 008°56'5 9.5
2017-Sep-13 23:30N 44°24' E 008°55'1 2.4
2017-Sep-13 22:59N 44°24' E 008°54'0 0.0
2017-Sep-13 22:29N 44°24' E 008°54'0 0.0
2017-Sep-13 21:59N 44°24' E 008°54'0 0.0
2017-Sep-13 21:29N 44°24' E 008°54'0 0.0
2017-Sep-13 20:59N 44°24' E 008°54'0 0.0
2017-Sep-13 20:26N 44°24' E 008°54'0 0.0
2017-Sep-13 19:59N 44°24' E 008°54'0 0.0
2017-Sep-13 19:26N 44°24' E 008°54'0 0.0
2017-Sep-13 18:53N 44°24' E 008°54'0 0.0
2017-Sep-13 18:29N 44°24' E 008°54'0 0.0
2017-Sep-13 17:59N 44°24' E 008°54'0 0.0
2017-Sep-13 17:29N 44°24' E 008°54'0 0.0
2017-Sep-13 16:59N 44°24' E 008°54'0 0.0
2017-Sep-13 16:29N 44°24' E 008°54'0 0.0
2017-Sep-13 15:56N 44°24' E 008°54'0 0.0
2017-Sep-13 15:29N 44°24' E 008°54'0 0.0
2017-Sep-13 14:59N 44°24' E 008°54'0 0.0
2017-Sep-13 14:26N 44°24' E 008°54'0 0.0
2017-Sep-13 13:59N 44°24' E 008°54'0 0.0
2017-Sep-13 13:29N 44°24' E 008°54'0 0.0
2017-Sep-13 12:59N 44°24' E 008°54'0 0.0
2017-Sep-13 12:29N 44°24' E 008°54'0 0.0
2017-Sep-13 11:59N 44°24' E 008°54'0 0.0
2017-Sep-13 11:29N 44°24' E 008°54'0 0.0
2017-Sep-13 11:00N 44°24' E 008°54'1 1.8
2017-Sep-13 10:30N 44°24' E 008°55'3 5.9
2017-Sep-13 10:00N 44°22' E 008°58'511.0
2017-Sep-13 09:30N 44°17' E 009°02'1019.2
2017-Sep-13 09:00N 44°10' E 009°10'1019.9
2017-Sep-13 08:30N 44°02' E 009°19'1019.7
2017-Sep-13 08:00N 43°54' E 009°28'1019.4
2017-Sep-13 07:30N 43°47' E 009°36'1019.3
2017-Sep-13 07:00N 43°39' E 009°44'1019.2
2017-Sep-13 06:30N 43°32' E 009°52'918.5
2017-Sep-13 06:00N 43°30' E 010°05'714.0
2017-Sep-13 05:30N 43°32' E 010°14'3 6.8
2017-Sep-13 05:00N 43°34' E 010°18'1 1.1
2017-Sep-13 04:27N 43°35' E 010°18'0 0.0
2017-Sep-13 04:00N 43°35' E 010°18'0 0.0
2017-Sep-13 03:30N 43°35' E 010°18'0 0.0
2017-Sep-13 02:57N 43°35' E 010°18'0 0.0
2017-Sep-13 02:30N 43°35' E 010°18'0 0.0
2017-Sep-13 02:00N 43°35' E 010°18'0 0.0
2017-Sep-13 01:24N 43°35' E 010°18'0 0.0
2017-Sep-13 01:00N 43°35' E 010°18'0 0.0
2017-Sep-13 00:30N 43°35' E 010°18'0 0.0
2017-Sep-13 00:00N 43°35' E 010°18'0 0.0
2017-Sep-12 23:30N 43°35' E 010°18'0 0.0
2017-Sep-12 23:00N 43°35' E 010°18'0 0.0
2017-Sep-12 22:30N 43°35' E 010°18'0 0.0
2017-Sep-12 22:00N 43°35' E 010°18'0 0.0
2017-Sep-12 21:30N 43°35' E 010°18'0 0.0
2017-Sep-12 20:57N 43°35' E 010°18'0 0.0
2017-Sep-12 20:30N 43°35' E 010°18'0 0.0
2017-Sep-12 20:00N 43°35' E 010°18'0 0.0
2017-Sep-12 19:30N 43°35' E 010°18'0 0.0
2017-Sep-12 19:00N 43°35' E 010°18'0 0.0
2017-Sep-12 18:28N 43°35' E 010°18'0 0.0
2017-Sep-12 17:58N 43°35' E 010°18'0 0.0
2017-Sep-12 17:28N 43°35' E 010°18'0 0.0
2017-Sep-12 16:58N 43°35' E 010°18'0 0.0
2017-Sep-12 16:28N 43°35' E 010°18'0 0.0
2017-Sep-12 15:58N 43°35' E 010°18'0 0.0
2017-Sep-12 15:28N 43°35' E 010°18'0 0.0
2017-Sep-12 14:58N 43°35' E 010°18'0 0.0
2017-Sep-12 14:28N 43°35' E 010°18'0 0.0
2017-Sep-12 13:55N 43°35' E 010°18'0 0.0
2017-Sep-12 13:28N 43°35' E 010°18'0 0.0
2017-Sep-12 12:58N 43°35' E 010°18'0 0.0
2017-Sep-12 12:28N 43°35' E 010°18'0 0.0
2017-Sep-12 11:58N 43°35' E 010°18'0 0.0
2017-Sep-12 11:28N 43°35' E 010°18'0 0.0
2017-Sep-12 10:58N 43°35' E 010°18'0 0.0
2017-Sep-12 10:28N 43°35' E 010°18'0 0.0
2017-Sep-12 09:58N 43°35' E 010°18'0 0.0
2017-Sep-12 09:28N 43°35' E 010°18'0 0.0
2017-Sep-12 08:58N 43°35' E 010°18'0 0.0
2017-Sep-12 08:28N 43°35' E 010°18'0 0.0
2017-Sep-12 07:58N 43°35' E 010°18'0 0.0
2017-Sep-12 07:28N 43°35' E 010°18'0 0.0
2017-Sep-12 06:58N 43°35' E 010°18'0 0.0
2017-Sep-12 06:28N 43°35' E 010°18'0 0.0
2017-Sep-12 05:58N 43°35' E 010°18'0 0.0
2017-Sep-12 05:25N 43°35' E 010°18'0 0.0
2017-Sep-12 04:55N 43°35' E 010°18'0 0.0
2017-Sep-12 04:28N 43°35' E 010°18'0 0.0
2017-Sep-12 03:58N 43°35' E 010°18'0 0.0
2017-Sep-12 03:28N 43°35' E 010°18'0 0.0
2017-Sep-12 02:58N 43°35' E 010°18'0 0.0
2017-Sep-12 02:28N 43°35' E 010°18'0 0.0
2017-Sep-12 01:58N 43°35' E 010°18'0 0.0
2017-Sep-12 01:28N 43°35' E 010°18'0 0.0
2017-Sep-12 00:58N 43°35' E 010°18'0 0.0
2017-Sep-12 00:28N 43°35' E 010°18'0 0.0
2017-Sep-11 23:58N 43°35' E 010°18'0 0.0
2017-Sep-11 23:22N 43°35' E 010°18'0 0.0
2017-Sep-11 22:58N 43°35' E 010°18'0 0.0
2017-Sep-11 22:22N 43°35' E 010°18'0 0.0
2017-Sep-11 21:55N 43°35' E 010°18'0 0.0
2017-Sep-11 21:28N 43°35' E 010°18'0 0.0
2017-Sep-11 20:58N 43°35' E 010°18'0 0.0
2017-Sep-11 20:28N 43°35' E 010°18'0 0.0
2017-Sep-11 19:58N 43°35' E 010°18'0 0.0
2017-Sep-11 19:28N 43°35' E 010°18'0 0.0
2017-Sep-11 18:58N 43°35' E 010°18'0 0.0
2017-Sep-11 18:28N 43°35' E 010°18'0 0.0
2017-Sep-11 17:58N 43°35' E 010°18'0 0.0
2017-Sep-11 17:28N 43°35' E 010°18'0 0.0
2017-Sep-11 16:55N 43°35' E 010°18'0 0.0
2017-Sep-11 16:28N 43°35' E 010°18'0 0.0
2017-Sep-11 15:58N 43°35' E 010°18'0 0.0
2017-Sep-11 15:28N 43°35' E 010°18'0 0.0
2017-Sep-11 14:58N 43°35' E 010°18'0 0.0
2017-Sep-11 14:28N 43°35' E 010°18'0 0.0
2017-Sep-11 13:58N 43°35' E 010°18'0 0.0
2017-Sep-11 13:25N 43°35' E 010°18'0 0.0
2017-Sep-11 12:55N 43°35' E 010°18'0 0.0
2017-Sep-11 12:31N 43°35' E 010°18'1 1.2
2017-Sep-11 12:01N 43°34' E 010°18'1 2.1
2017-Sep-11 11:31N 43°33' E 010°17'1 2.7
2017-Sep-11 11:01N 43°32' E 010°16'2 4.6
2017-Sep-11 10:31N 43°30' E 010°14'510.7
2017-Sep-11 10:00N 43°26' E 010°10'0 0.4
2017-Sep-11 09:30N 43°26' E 010°10'0 0.5
2017-Sep-11 09:00N 43°26' E 010°10'1 1.0
2017-Sep-11 08:30N 43°25' E 010°09'1 1.2
2017-Sep-11 08:00N 43°25' E 010°09'4 7.2
2017-Sep-11 07:30N 43°22' E 010°05'611.2
2017-Sep-11 07:00N 43°19' E 009°59'713.5
2017-Sep-11 06:31N 43°17' E 009°50'917.5
2017-Sep-11 06:01N 43°14' E 009°39'1019.6
2017-Sep-11 05:31N 43°12' E 009°25'1019.8
2017-Sep-11 05:01N 43°09' E 009°12'  

Dump ship's entire track history